Terminal Aerodrome Forecast
Issued by NWS

Home | Current Version | Previous Version | Text Only | Print | Product List | Glossary On
Versions: 1 2 3 4 5 6 7 8 9 10 11 12 13 14 15 16 17 18 19 20 21 22 23 24 25 26 27 28 29
000
FTUS41 KOKX 080530
TAFHPN
TAF
KHPN 080530Z 0806/0906 VRB05KT 3SM BR SCT030 BKN250
     FM081400 27008KT P6SM VCTS BKN040CB
     FM090200 33005KT P6SM BKN040
      AMD NOT SKED=

USA.gov is the U.S. government's official web portal to all federal, state and local government web resources and services.